Time;durP1;ratioP1;P1;durP2;ratioP2;P2;SDS_P1;SDS_P2;PMS_P1;PMS_P2;Temp;Humidity;BMP_temperature;BMP_pressure;BME280_temperature;BME280_humidity;BME280_pressure;Samples;Min_cycle;Max_cycle;Signal;HPM_P1;HPM_P2
2023/01/28 00:01:38;;;;;;;;;37.00;35.33;;;;;1.72;72.01;99362.78;5075560;28;45407;-74
2023/01/28 00:04:03;;;;;;;;;35.00;27.00;;;;;1.72;71.80;99361.94;5077391;28;45457;-74
2023/01/28 00:06:28;;;;;;;;;40.67;33.33;;;;;1.73;72.08;99351.53;5074249;27;45462;-74
2023/01/28 00:08:54;;;;;;;;;30.67;26.33;;;;;1.74;72.19;99350.66;5076207;27;45502;-74
2023/01/28 00:11:21;;;;;;;;;33.33;32.33;;;;;1.73;72.14;99353.25;5091201;27;45470;-74
2023/01/28 00:13:51;;;;;;;;;47.67;40.67;;;;;1.74;72.06;99358.47;5072935;28;45518;-74
2023/01/28 00:16:16;;;;;;;;;46.00;34.67;;;;;1.74;71.66;99370.59;5074762;27;45638;-74
2023/01/28 00:18:41;;;;;;;;;44.00;39.33;;;;;1.71;71.73;99350.66;5072577;27;45426;-74
2023/01/28 00:21:11;;;;;;;;;41.67;33.33;;;;;1.73;72.00;99355.88;5075339;28;45428;-74
2023/01/28 00:23:37;;;;;;;;;44.00;37.67;;;;;1.71;71.61;99350.66;5072012;28;45442;-74
2023/01/28 00:26:09;;;;;;;;;45.33;39.33;;;;;1.73;71.73;99350.66;5075038;28;45542;-74
2023/01/28 00:28:34;;;;;;;;;45.33;37.00;;;;;1.72;71.80;99354.13;5075379;27;46448;-74
2023/01/28 00:31:13;;;;;;;;;35.33;30.00;;;;;1.72;71.69;99349.81;5076068;27;45357;-74
2023/01/28 00:33:38;;;;;;;;;35.00;33.00;;;;;1.69;71.72;99349.78;5076072;28;45407;-74
2023/01/28 00:36:05;;;;;;;;;39.00;33.67;;;;;1.70;72.12;99350.66;5075112;28;45502;-74
2023/01/28 00:38:32;;;;;;;;;37.00;30.33;;;;;1.70;72.21;99354.13;5074359;28;47663;-74
2023/01/28 00:41:08;;;;;;;;;48.00;33.00;;;;;1.71;72.37;99345.47;5076597;28;45510;-74
2023/01/28 00:43:34;;;;;;;;;42.00;38.67;;;;;1.73;72.18;99346.34;5073328;28;45402;-74
2023/01/28 00:45:59;;;;;;;;;43.00;33.33;;;;;1.74;71.81;99355.88;5056677;28;45422;-74
2023/01/28 00:48:24;;;;;;;;;39.33;37.00;;;;;1.74;71.76;99342.88;5056472;28;45396;-75
2023/01/28 00:50:50;;;;;;;;;48.67;41.67;;;;;1.75;72.14;99352.41;5056090;28;45371;-74
2023/01/28 00:53:16;;;;;;;;;36.33;31.33;;;;;1.74;71.62;99348.06;5056586;28;45360;-74
2023/01/28 00:55:41;;;;;;;;;39.33;27.67;;;;;1.74;71.85;99345.47;5064010;28;45622;-74
2023/01/28 00:58:06;;;;;;;;;42.67;34.00;;;;;1.73;71.82;99342.88;5076622;27;45422;-74
2023/01/28 01:00:32;;;;;;;;;41.67;38.33;;;;;1.71;72.00;99349.78;5077110;28;45405;-74
2023/01/28 01:02:58;;;;;;;;;47.33;34.33;;;;;1.68;71.33;99347.19;5076624;28;45420;-74
2023/01/28 01:05:23;;;;;;;;;38.67;33.33;;;;;1.66;71.61;99342.03;5068556;27;45339;-74
2023/01/28 01:07:48;;;;;;;;;41.00;32.00;;;;;1.67;71.17;99350.69;5086543;27;46972;-74
2023/01/28 01:10:17;;;;;;;;;45.00;35.67;;;;;1.65;71.30;99352.41;5074785;28;45763;-74
2023/01/28 01:12:45;;;;;;;;;37.00;34.33;;;;;1.62;71.29;99345.50;5076511;28;45372;-75
2023/01/28 01:15:11;;;;;;;;;43.33;31.33;;;;;1.62;71.15;99361.09;5075878;28;45390;-74
2023/01/28 01:17:41;;;;;;;;;34.00;30.00;;;;;1.61;70.94;99356.75;5076431;28;46275;-75
2023/01/28 01:20:13;;;;;;;;;42.33;36.00;;;;;1.61;71.56;99351.56;5076556;28;45430;-74
2023/01/28 01:22:38;;;;;;;;;56.33;40.67;;;;;1.62;71.00;99357.63;5076023;28;45411;-74
2023/01/28 01:25:05;;;;;;;;;36.67;29.67;;;;;1.61;71.29;99353.28;5092198;27;45638;-75
2023/01/28 01:27:31;;;;;;;;;43.00;33.00;;;;;1.62;71.28;99368.00;5076164;28;45460;-74
2023/01/28 01:29:57;;;;;;;;;40.00;33.00;;;;;1.62;71.08;99357.63;5076329;28;45360;-74
2023/01/28 01:32:23;;;;;;;;;32.67;31.00;;;;;1.63;71.07;99359.34;5076108;28;45506;-74
2023/01/28 01:34:48;;;;;;;;;40.33;33.00;;;;;1.60;71.30;99357.63;5075829;28;45510;-74
2023/01/28 01:37:14;;;;;;;;;39.67;38.00;;;;;1.61;71.11;99353.28;5075784;28;45476;-75
2023/01/28 01:39:39;;;;;;;;;32.33;26.33;;;;;1.61;71.48;99368.88;5075904;27;45494;-74
2023/01/28 01:42:05;;;;;;;;;25.33;19.33;;;;;1.60;71.41;99356.75;5072384;28;45478;-74
2023/01/28 01:44:55;;;;;;;;;27.00;23.00;;;;;1.58;71.57;99361.06;5055620;28;45315;-75
2023/01/28 01:47:38;;;;;;;;;35.33;32.33;;;;;1.56;71.51;99353.28;5060993;28;47590;-75
2023/01/28 01:50:20;;;;;;;;;49.00;35.00;;;;;1.56;71.56;99357.59;5075487;27;45339;-75
2023/01/28 01:52:50;;;;;;;;;39.67;31.00;;;;;1.56;71.89;99360.19;5075249;28;45484;-75
2023/01/28 01:55:19;;;;;;;;;35.67;33.00;;;;;1.55;71.38;99351.53;5075517;28;45549;-74
2023/01/28 01:57:48;;;;;;;;;36.67;31.00;;;;;1.57;71.70;99357.59;5075471;27;45507;-74
2023/01/28 02:00:14;;;;;;;;;30.33;25.33;;;;;1.58;71.62;99348.09;5075281;28;45392;-75
2023/01/28 02:02:44;;;;;;;;;39.67;38.67;;;;;1.59;71.72;99353.28;5075148;28;45330;-72
2023/01/28 02:05:12;;;;;;;;;37.00;27.00;;;;;1.58;71.75;99354.16;5075490;28;45513;-74
2023/01/28 02:07:38;;;;;;;;;42.33;35.67;;;;;1.57;72.24;99347.22;5059132;28;46454;-73
2023/01/28 02:10:06;;;;;;;;;39.00;30.33;;;;;1.59;71.91;99344.63;5055005;28;45410;-75
2023/01/28 02:12:51;;;;;;;;;52.67;39.00;;;;;1.58;72.01;99343.75;5055345;28;45444;-73
2023/01/28 02:15:20;;;;;;;;;39.67;33.33;;;;;1.58;72.10;99351.53;5064237;28;45407;-74
2023/01/28 02:17:48;;;;;;;;;45.00;34.67;;;;;1.58;72.10;99346.34;5075485;28;45476;-75
2023/01/28 02:21:06;;;;;;;;;48.00;39.67;;;;;1.58;71.92;99345.47;5075121;28;45628;-74
2023/01/28 02:23:59;;;;;;;;;35.33;28.00;;;;;1.57;71.84;99352.41;5057287;28;45508;-75
2023/01/28 02:26:24;;;;;;;;;38.00;30.00;;;;;1.56;71.91;99348.06;5075504;28;45273;-75
2023/01/28 02:29:24;;;;;;;;;40.33;34.67;;;;;1.58;71.96;99350.69;5074823;28;45729;-75
2023/01/28 02:31:56;;;;;;;;;43.00;35.67;;;;;1.57;72.08;99357.59;5090875;27;45413;-74
2023/01/28 02:34:37;;;;;;;;;35.67;28.33;;;;;1.56;72.17;99362.81;5075150;28;45427;-75
2023/01/28 02:37:28;;;;;;;;;46.33;37.00;;;;;1.53;72.66;99352.41;5074879;28;45454;-75
2023/01/28 02:40:01;;;;;;;;;33.67;32.67;;;;;1.50;72.48;99365.41;5073775;28;46969;-75
2023/01/28 02:42:30;;;;;;;;;36.00;29.67;;;;;1.48;71.87;99362.81;5069527;28;45470;-74
2023/01/28 02:44:56;;;;;;;;;35.67;29.00;;;;;1.48;71.96;99372.34;5054960;28;45439;-73
2023/01/28 02:50:10;;;;;;;;;34.33;25.67;;;;;1.48;72.40;99377.53;5054382;28;45784;-75
2023/01/28 02:55:51;;;;;;;;;41.67;33.00;;;;;1.47;72.46;99370.63;5061845;28;45394;-74
2023/01/28 02:58:33;;;;;;;;;44.00;35.33;;;;;1.46;72.30;99361.09;5089933;27;45380;-74
2023/01/28 03:01:09;;;;;;;;;39.33;34.33;;;;;1.43;72.48;99361.94;5072210;28;47942;-75
2023/01/28 03:03:58;;;;;;;;;32.00;28.00;;;;;1.44;72.65;99360.22;5065984;28;45476;-75
2023/01/28 03:06:29;;;;;;;;;36.00;26.33;;;;;1.41;72.35;99368.88;5059311;28;45432;-75
2023/01/28 03:38:17;;;;;;;;;45.00;40.33;;;;;1.21;73.02;99361.06;5063291;28;45566;-75
2023/01/28 03:40:54;;;;;;;;;46.00;35.00;;;;;1.21;73.17;99362.78;5052347;28;45544;-75
2023/01/28 03:43:19;;;;;;;;;34.33;28.00;;;;;1.20;73.16;99369.69;5052960;28;45458;-74
2023/01/28 03:45:45;;;;;;;;;40.00;35.00;;;;;1.18;73.14;99363.63;5053475;28;45475;-75
2023/01/28 03:48:14;;;;;;;;;35.33;30.67;;;;;1.20;73.19;99366.25;5067626;28;45444;-75
2023/01/28 03:50:39;;;;;;;;;44.33;39.67;;;;;1.20;73.12;99366.25;5072349;28;45431;-75
2023/01/28 03:53:14;;;;;;;;;43.00;37.33;;;;;1.19;73.34;99374.91;5073549;28;45333;-75
2023/01/28 03:55:41;;;;;;;;;30.33;26.67;;;;;1.20;73.13;99361.06;5062137;28;46500;-74
2023/01/28 03:58:06;;;;;;;;;33.00;30.33;;;;;1.21;73.29;99367.97;5073797;27;45321;-75
2023/01/28 04:00:32;;;;;;;;;41.00;34.00;;;;;1.21;73.29;99362.78;5072746;28;45435;-75
2023/01/28 04:02:58;;;;;;;;;41.00;31.33;;;;;1.21;73.18;99367.97;5072064;28;45343;-74
2023/01/28 04:05:24;;;;;;;;;31.67;14.67;;;;;1.21;72.80;99360.19;5063547;28;45434;-74
2023/01/28 04:07:53;;;;;;;;;42.00;36.33;;;;;1.23;73.05;99368.84;5075372;28;45587;-75
2023/01/28 04:10:19;;;;;;;;;46.33;34.67;;;;;1.25;73.38;99374.91;5077340;28;45316;-74
2023/01/28 04:12:44;;;;;;;;;40.33;30.67;;;;;1.25;73.60;99377.50;5077044;28;45337;-74
2023/01/28 04:15:15;;;;;;;;;32.33;29.00;;;;;1.23;73.15;99389.63;5068888;28;46291;-74
2023/01/28 04:17:45;;;;;;;;;32.67;28.67;;;;;1.19;72.94;99370.56;5056857;28;45464;-74
2023/01/28 04:20:11;;;;;;;;;37.00;27.33;;;;;1.19;73.06;99380.94;5056881;28;45457;-75
2023/01/28 04:22:37;;;;;;;;;35.67;30.67;;;;;1.17;72.75;99385.31;5069972;28;45360;-75
2023/01/28 04:25:03;;;;;;;;;47.33;40.00;;;;;1.15;72.97;99373.19;5056783;28;46338;-74
2023/01/28 04:27:28;;;;;;;;;38.33;32.33;;;;;1.14;73.09;99376.63;5057018;28;45556;-75
2023/01/28 04:29:53;;;;;;;;;40.67;33.00;;;;;1.15;73.17;99379.25;5057240;28;45447;-75
2023/01/28 04:32:19;;;;;;;;;48.00;40.33;;;;;1.16;73.14;99382.72;5056655;28;45376;-75
2023/01/28 04:34:44;;;;;;;;;38.33;33.33;;;;;1.16;73.08;99382.72;5082116;27;47045;-74
2023/01/28 04:37:10;;;;;;;;;49.33;38.67;;;;;1.16;73.44;99382.72;5076636;27;45483;-74
2023/01/28 04:39:35;;;;;;;;;43.33;39.00;;;;;1.18;73.34;99386.13;5077364;28;45289;-74
2023/01/28 04:42:00;;;;;;;;;50.00;41.00;;;;;1.16;73.44;99391.38;5077098;28;45389;-74
2023/01/28 04:44:26;;;;;;;;;37.67;32.33;;;;;1.16;73.41;99391.38;5076880;27;45511;-74
2023/01/28 04:46:51;;;;;;;;;35.67;32.33;;;;;1.16;73.24;99395.69;5063423;27;45524;-74
2023/01/28 04:49:16;;;;;;;;;32.33;24.33;;;;;1.17;73.00;99387.03;5068048;27;45463;-74
2023/01/28 04:51:42;;;;;;;;;44.67;39.33;;;;;1.17;72.96;99385.31;5056372;28;45565;-74
2023/01/28 04:54:07;;;;;;;;;39.67;34.67;;;;;1.20;72.99;99381.81;5056802;28;45456;-74
2023/01/28 04:56:33;;;;;;;;;35.00;26.33;;;;;1.17;72.98;99403.47;5072419;28;45355;-75
2023/01/28 04:58:58;;;;;;;;;33.33;33.33;;;;;1.15;72.97;99386.16;5075404;28;45425;-75
2023/01/28 05:01:24;;;;;;;;;38.33;25.00;;;;;1.12;73.04;99381.81;5074239;28;45381;-75
2023/01/28 05:03:49;;;;;;;;;41.00;30.00;;;;;1.14;72.54;99379.22;5056491;28;46002;-75
2023/01/28 05:06:15;;;;;;;;;39.33;29.33;;;;;1.15;72.45;99375.78;5072194;28;45410;-74
2023/01/28 05:08:40;;;;;;;;;37.67;32.00;;;;;1.16;72.82;99375.78;5066309;28;45421;-75
2023/01/28 05:11:06;;;;;;;;;47.33;34.00;;;;;1.16;72.78;99377.50;5056095;28;45600;-75
2023/01/28 05:13:31;;;;;;;;;43.00;36.67;;;;;1.18;72.82;99389.59;5055757;28;46321;-75
2023/01/28 05:15:56;;;;;;;;;39.67;33.33;;;;;1.17;72.55;99371.47;5057826;28;45411;-75
2023/01/28 05:18:22;;;;;;;;;47.33;39.67;;;;;1.17;72.63;99379.25;5065942;28;45506;-75
2023/01/28 05:20:47;;;;;;;;;42.33;33.67;;;;;1.19;72.72;99393.94;5069416;28;45534;-75
2023/01/28 05:23:12;;;;;;;;;48.00;35.67;;;;;1.19;72.70;99396.53;5055846;28;46033;-74
2023/01/28 05:25:38;;;;;;;;;40.33;31.00;;;;;1.19;72.78;99393.06;5056104;28;45504;-75
2023/01/28 05:28:03;;;;;;;;;28.67;26.00;;;;;1.18;72.58;99394.78;5065313;28;45575;-74
2023/01/28 05:30:29;;;;;;;;;36.00;34.00;;;;;1.18;72.77;99383.53;5059713;28;45558;-73
2023/01/28 05:32:55;;;;;;;;;36.33;28.33;;;;;1.17;73.15;99403.47;5055851;28;45923;-75
2023/01/28 05:35:21;;;;;;;;;41.33;32.33;;;;;1.15;73.09;99406.94;5055700;28;45370;-75
2023/01/28 05:37:46;;;;;;;;;35.67;28.67;;;;;1.15;72.87;99387.03;5064243;28;45452;-75
2023/01/28 05:40:12;;;;;;;;;42.00;36.00;;;;;1.14;73.31;99402.59;5059294;27;45403;-75
2023/01/28 05:42:37;;;;;;;;;38.33;31.33;;;;;1.15;72.98;99393.94;5055787;28;45620;-73
2023/01/28 05:45:03;;;;;;;;;31.33;28.33;;;;;1.16;73.05;99401.75;5054063;28;45460;-75
2023/01/28 05:47:28;;;;;;;;;35.67;29.33;;;;;1.18;72.86;99409.50;5056164;28;45465;-74
2023/01/28 05:49:53;;;;;;;;;30.00;25.00;;;;;1.17;72.89;99408.69;5055393;28;45277;-74
2023/01/28 05:52:19;;;;;;;;;45.00;30.33;;;;;1.19;72.93;99406.06;5053926;28;47248;-75
2023/01/28 05:54:44;;;;;;;;;33.00;29.33;;;;;1.17;72.93;99426.84;5055091;28;45437;-75
2023/01/28 05:57:10;;;;;;;;;41.00;38.67;;;;;1.15;72.91;99404.34;5076019;27;45379;-74
2023/01/28 05:59:35;;;;;;;;;36.67;29.67;;;;;1.17;73.34;99415.59;5074097;28;45665;-74
2023/01/28 06:02:00;;;;;;;;;34.00;30.67;;;;;1.17;73.29;99415.59;5075605;28;45419;-73
2023/01/28 06:04:26;;;;;;;;;42.67;34.67;;;;;1.17;72.59;99410.41;5073623;28;45381;-75
2023/01/28 06:06:51;;;;;;;;;42.33;36.33;;;;;1.17;72.87;99407.81;5066216;28;45928;-75
2023/01/28 06:09:16;;;;;;;;;37.33;31.67;;;;;1.17;73.21;99421.66;5055087;28;45576;-73
2023/01/28 06:11:43;;;;;;;;;37.00;31.67;;;;;1.16;72.75;99412.13;5055391;28;45466;-75
2023/01/28 06:14:08;;;;;;;;;37.67;30.67;;;;;1.18;72.97;99412.09;5055155;28;45364;-74
2023/01/28 06:16:34;;;;;;;;;32.33;26.33;;;;;1.17;73.14;99407.81;5055397;28;45373;-75
2023/01/28 06:18:59;;;;;;;;;38.00;34.00;;;;;1.18;73.03;99419.91;5053318;28;45508;-73
2023/01/28 06:21:25;;;;;;;;;40.33;33.33;;;;;1.17;73.33;99431.19;5054380;28;45367;-73
2023/01/28 06:23:50;;;;;;;;;36.50;31.50;;;;;1.19;73.21;99432.00;5054508;28;45403;-73
2023/01/28 06:26:16;;;;;;;;;41.67;35.67;;;;;1.18;73.29;99419.91;5061931;28;45400;-73
2023/01/28 06:28:41;;;;;;;;;40.67;29.67;;;;;1.17;73.86;99423.38;5074447;27;45451;-75
2023/01/28 06:31:06;;;;;;;;;27.67;26.67;;;;;1.18;73.77;99444.13;5075052;28;45529;-75
2023/01/28 06:33:32;;;;;;;;;38.00;29.33;;;;;1.16;73.29;99437.22;5061334;28;45373;-73
2023/01/28 06:35:57;;;;;;;;;41.00;39.33;;;;;1.17;74.04;99437.25;5074822;27;45402;-73
2023/01/28 06:38:23;;;;;;;;;33.00;29.67;;;;;1.17;74.06;99444.16;5090534;27;45408;-74
2023/01/28 06:40:54;;;;;;;;;47.33;38.33;;;;;1.18;73.90;99438.94;5060795;28;45587;-75
2023/01/28 06:43:20;;;;;;;;;32.33;29.00;;;;;1.13;73.86;99430.28;5074805;28;45430;-74
2023/01/28 06:45:45;;;;;;;;;38.33;30.67;;;;;1.13;73.66;99445.00;5074715;28;45478;-75
2023/01/28 06:48:11;;;;;;;;;33.33;26.67;;;;;1.11;74.25;99444.13;5074550;28;45449;-75
2023/01/28 06:50:36;;;;;;;;;37.33;30.00;;;;;1.13;74.24;99440.69;5074460;28;46207;-74
2023/01/28 06:53:02;;;;;;;;;41.67;26.00;;;;;1.14;74.18;99438.94;5074658;28;45399;-74
2023/01/28 06:55:27;;;;;;;;;38.33;27.67;;;;;1.14;74.57;99451.94;5074591;28;45464;-75
2023/01/28 06:57:53;;;;;;;;;43.00;35.33;;;;;1.12;74.42;99458.84;5074616;27;45348;-75
2023/01/28 07:00:18;;;;;;;;;42.00;35.67;;;;;1.11;74.75;99451.91;5072956;28;47331;-75
2023/01/28 07:02:44;;;;;;;;;33.67;24.33;;;;;1.08;74.79;99449.31;5074667;28;45356;-74
2023/01/28 07:05:10;;;;;;;;;34.67;29.33;;;;;1.05;75.12;99456.22;5074586;28;45328;-74
2023/01/28 07:07:35;;;;;;;;;28.67;23.00;;;;;1.08;74.77;99457.09;5058117;28;45358;-75
2023/01/28 07:10:01;;;;;;;;;38.67;31.33;;;;;1.05;74.81;99444.97;5052276;28;48030;-73
2023/01/28 07:12:26;;;;;;;;;32.67;29.00;;;;;1.07;74.55;99448.44;5052038;28;45340;-74
2023/01/28 07:14:52;;;;;;;;;29.00;25.00;;;;;1.08;74.44;99452.78;5052235;28;45732;-74
2023/01/28 07:17:17;;;;;;;;;32.33;27.33;;;;;1.09;74.75;99466.63;5053974;28;45429;-74
2023/01/28 07:19:42;;;;;;;;;32.33;24.00;;;;;1.09;74.49;99451.91;5054198;28;46416;-74
2023/01/28 07:22:08;;;;;;;;;34.67;27.33;;;;;1.12;74.20;99458.84;5052552;28;45368;-74
2023/01/28 07:24:36;;;;;;;;;23.33;19.67;;;;;1.14;74.15;99459.72;5053982;28;45482;-74
2023/01/28 07:27:03;;;;;;;;;37.67;32.33;;;;;1.13;74.01;99458.84;5066676;28;45523;-74
2023/01/28 07:29:28;;;;;;;;;33.67;26.67;;;;;1.15;74.18;99456.25;5089478;27;47064;-74
2023/01/28 07:31:54;;;;;;;;;31.33;27.33;;;;;1.17;73.73;99459.75;5060432;27;45357;-74
2023/01/28 07:34:19;;;;;;;;;24.00;18.33;;;;;1.18;73.40;99464.91;5067184;27;45390;-74
2023/01/28 07:36:46;;;;;;;;;27.00;23.67;;;;;1.21;73.42;99475.31;5051597;28;45515;-74
2023/01/28 07:39:11;;;;;;;;;36.33;27.33;;;;;1.23;73.29;99468.38;5075331;27;45387;-74
2023/01/28 07:41:37;;;;;;;;;35.00;26.67;;;;;1.23;73.93;99477.91;5062822;28;45418;-74
2023/01/28 07:44:02;;;;;;;;;28.00;26.67;;;;;1.24;73.64;99487.44;5057536;28;45362;-74
2023/01/28 07:46:27;;;;;;;;;29.33;26.00;;;;;1.24;73.82;99492.63;5070409;28;45328;-74
2023/01/28 07:48:53;;;;;;;;;32.00;26.00;;;;;1.22;74.01;99500.41;5057651;27;46305;-74
2023/01/28 07:51:18;;;;;;;;;31.67;30.33;;;;;1.22;74.41;99487.44;5056502;28;45432;-74
2023/01/28 07:53:43;;;;;;;;;32.33;25.00;;;;;1.24;74.54;99490.91;5055607;28;45377;-74
2023/01/28 07:56:09;;;;;;;;;33.00;27.00;;;;;1.25;74.04;99491.78;5069335;28;45646;-74
2023/01/28 07:58:34;;;;;;;;;37.00;30.00;;;;;1.25;74.03;99489.16;5075569;28;46717;-75
2023/01/28 08:01:00;;;;;;;;;28.33;24.00;;;;;1.28;74.12;99504.78;5077210;28;45502;-75
2023/01/28 08:03:27;;;;;;;;;32.33;30.33;;;;;1.28;74.21;99512.56;5056147;28;45313;-75
2023/01/28 08:05:54;;;;;;;;;28.00;23.67;;;;;1.26;73.94;99511.69;5056188;28;45340;-74
2023/01/28 08:08:21;;;;;;;;;42.00;29.00;;;;;1.24;74.31;99521.19;5056109;28;46417;-74
2023/01/28 08:10:47;;;;;;;;;26.00;24.00;;;;;1.20;74.52;99516.84;5056119;28;45437;-74
2023/01/28 08:13:13;;;;;;;;;31.33;27.67;;;;;1.17;74.37;99520.31;5056716;28;45416;-75
2023/01/28 08:15:39;;;;;;;;;27.67;24.00;;;;;1.15;75.30;99524.63;5056150;28;45380;-75
2023/01/28 08:18:06;;;;;;;;;41.33;35.00;;;;;1.15;74.80;99527.22;5055952;28;45503;-75
2023/01/28 08:20:32;;;;;;;;;39.67;34.67;;;;;1.15;75.49;99529.84;5054510;28;45420;-74
2023/01/28 08:23:11;;;;;;;;;39.33;32.67;;;;;1.16;75.57;99531.56;5062904;28;45459;-74
2023/01/28 08:25:37;;;;;;;;;39.00;28.33;;;;;1.17;75.41;99541.09;5063005;28;45416;-75
2023/01/28 08:28:04;;;;;;;;;37.67;29.67;;;;;1.16;75.44;99543.69;5076010;27;45378;-75
2023/01/28 08:30:30;;;;;;;;;42.33;31.00;;;;;1.16;75.56;99547.16;5061022;28;45566;-75
2023/01/28 08:32:57;;;;;;;;;50.67;34.33;;;;;1.19;75.68;99548.88;5056556;28;45439;-75
2023/01/28 08:35:24;;;;;;;;;33.67;32.33;;;;;1.17;76.07;99548.88;5057726;28;45638;-75
2023/01/28 08:37:49;;;;;;;;;35.33;35.33;;;;;1.18;76.02;99549.72;5065517;28;47770;-75
2023/01/28 08:40:15;;;;;;;;;35.00;26.67;;;;;1.19;75.35;99556.66;5070000;28;45453;-74
2023/01/28 08:42:47;;;;;;;;;34.67;26.33;;;;;1.25;75.45;99556.69;5066419;28;45467;-74
2023/01/28 08:45:13;;;;;;;;;33.67;32.33;;;;;1.30;75.51;99561.06;5055586;28;45415;-74
2023/01/28 08:47:50;;;;;;;;;32.33;27.00;;;;;1.36;75.35;99562.78;5065765;28;45458;-74
2023/01/28 08:50:17;;;;;;;;;37.67;29.67;;;;;1.38;75.16;99564.53;5056877;27;45325;-75
2023/01/28 08:52:43;;;;;;;;;39.00;33.33;;;;;1.41;75.00;99566.28;5055860;28;45441;-75
2023/01/28 08:55:12;;;;;;;;;45.67;34.00;;;;;1.45;74.78;99573.22;5059337;28;45418;-75
2023/01/28 08:57:38;;;;;;;;;35.67;33.67;;;;;1.48;75.15;99578.44;5073514;28;47446;-74
2023/01/28 09:00:06;;;;;;;;;45.00;35.67;;;;;1.52;75.19;99574.09;5075265;28;45422;-74
2023/01/28 09:02:31;;;;;;;;;42.00;38.00;;;;;1.56;75.28;99576.72;5075650;27;45392;-75
2023/01/28 09:04:57;;;;;;;;;40.00;31.00;;;;;1.59;75.16;99581.06;5070998;28;45393;-74
2023/01/28 09:07:23;;;;;;;;;48.00;38.33;;;;;1.60;75.50;99583.66;5067476;28;47130;-74
2023/01/28 09:09:48;;;;;;;;;48.33;39.33;;;;;1.65;75.92;99583.69;5091574;27;45340;-74
2023/01/28 09:12:13;;;;;;;;;36.67;33.00;;;;;1.65;75.31;99594.94;5076197;28;45384;-74
2023/01/28 09:14:39;;;;;;;;;39.67;34.33;;;;;1.64;75.48;99600.13;5075738;28;45354;-75
2023/01/28 09:17:04;;;;;;;;;44.33;37.00;;;;;1.59;75.04;99599.25;5075496;28;45992;-74
2023/01/28 09:19:30;;;;;;;;;59.67;40.00;;;;;1.54;75.22;99591.44;5071671;28;45546;-74
2023/01/28 09:21:55;;;;;;;;;44.33;37.67;;;;;1.52;75.38;99598.34;5054764;28;45422;-74
2023/01/28 09:24:21;;;;;;;;;39.00;35.00;;;;;1.50;75.27;99602.69;5053609;28;45574;-74
2023/01/28 09:26:49;;;;;;;;;46.00;36.67;;;;;1.49;75.24;99602.69;5055114;28;45628;-74
2023/01/28 09:29:15;;;;;;;;;44.67;39.33;;;;;1.49;75.50;99607.88;5058761;28;45397;-74
2023/01/28 09:31:41;;;;;;;;;33.33;24.33;;;;;1.49;75.53;99610.47;5090761;27;45318;-74
2023/01/28 09:34:08;;;;;;;;;49.00;40.67;;;;;1.52;75.86;99613.94;5074151;28;45342;-74
2023/01/28 09:36:34;;;;;;;;;36.00;34.00;;;;;1.54;75.55;99617.41;5090645;27;47165;-74
2023/01/28 09:39:00;;;;;;;;;42.00;33.33;;;;;1.58;75.97;99608.78;5071254;28;45463;-74
2023/01/28 09:41:44;;;;;;;;;47.00;36.00;;;;;1.60;75.73;99614.84;5055298;28;45497;-75
2023/01/28 09:44:52;;;;;;;;;41.33;36.33;;;;;1.60;75.38;99630.44;5061390;28;45515;-74
2023/01/28 09:47:34;;;;;;;;;48.00;39.67;;;;;1.64;75.54;99642.59;5054202;28;47167;-74
2023/01/28 09:50:05;;;;;;;;;38.67;34.33;;;;;1.69;75.67;99646.06;5068117;28;45507;-76
2023/01/28 09:52:35;;;;;;;;;52.33;41.67;;;;;1.70;75.04;99647.78;5075583;27;45410;-75
2023/01/28 09:55:26;;;;;;;;;42.33;40.00;;;;;1.71;75.33;99644.31;5073166;28;45526;-75
2023/01/28 09:57:54;;;;;;;;;52.67;41.67;;;;;1.72;74.94;99647.78;5073949;27;45530;-75
2023/01/28 10:00:37;;;;;;;;;42.33;36.00;;;;;1.73;75.33;99649.53;5084258;27;45638;-73
2023/01/28 10:03:53;;;;;;;;;34.33;28.00;;;;;1.74;74.91;99653.88;5055673;28;45423;-75
2023/01/28 10:06:49;;;;;;;;;35.00;31.00;;;;;1.72;75.04;99659.06;5028980;28;45480;-75
2023/01/28 10:09:17;;;;;;;;;37.33;32.67;;;;;1.73;74.82;99650.41;5012245;28;45540;-75
2023/01/28 10:12:05;;;;;;;;;35.33;30.67;;;;;1.77;74.78;99661.69;5050378;28;45433;-74
2023/01/28 10:14:52;;;;;;;;;46.67;38.00;;;;;1.74;74.61;99659.06;5074755;28;45345;-75
2023/01/28 10:17:25;;;;;;;;;50.67;40.67;;;;;1.70;74.72;99658.19;5074320;28;45374;-76
2023/01/28 10:20:07;;;;;;;;;37.00;28.33;;;;;1.69;74.58;99664.25;5074319;28;45698;-76
2023/01/28 10:22:45;;;;;;;;;42.33;35.33;;;;;1.67;74.70;99666.00;5058690;27;45461;-75
2023/01/28 10:25:20;;;;;;;;;40.33;37.00;;;;;1.70;74.86;99655.59;5053084;28;45452;-74
2023/01/28 10:27:47;;;;;;;;;36.67;35.33;;;;;1.73;74.62;99671.19;5059629;28;45493;-75
2023/01/28 10:30:22;;;;;;;;;37.00;31.33;;;;;1.71;74.56;99664.25;5061624;27;46364;-75
2023/01/28 10:33:09;;;;;;;;;44.00;38.67;;;;;1.70;74.33;99671.19;5060154;28;45352;-74
2023/01/28 10:35:39;;;;;;;;;37.00;32.33;;;;;1.70;74.31;99670.31;5074175;28;45672;-75
2023/01/28 10:38:07;;;;;;;;;44.33;36.33;;;;;1.69;74.95;99665.97;5074259;28;45421;-74
2023/01/28 10:40:34;;;;;;;;;42.33;32.67;;;;;1.67;74.52;99671.19;5073991;28;45397;-75
2023/01/28 10:43:00;;;;;;;;;48.33;38.33;;;;;1.66;74.55;99672.06;5063289;27;45434;-74
2023/01/28 10:45:31;;;;;;;;;45.00;40.33;;;;;1.68;74.70;99669.44;5058023;28;45607;-74
2023/01/28 10:48:22;;;;;;;;;42.67;35.67;;;;;1.70;74.45;99672.91;5061080;28;45579;-74
2023/01/28 10:51:00;;;;;;;;;37.00;30.00;;;;;1.70;74.48;99663.38;5061826;28;46484;-74
2023/01/28 10:53:45;;;;;;;;;44.67;37.67;;;;;1.71;74.31;99654.72;5073435;28;45432;-75
2023/01/28 10:56:22;;;;;;;;;46.33;40.67;;;;;1.77;74.39;99664.28;5072131;28;45455;-74
2023/01/28 10:59:20;;;;;;;;;35.00;31.67;;;;;1.82;74.26;99662.59;5060295;28;45423;-74
2023/01/28 11:01:52;;;;;;;;;38.67;37.67;;;;;1.83;73.78;99659.13;5069145;28;45946;-74
2023/01/28 11:04:26;;;;;;;;;45.00;36.67;;;;;1.82;74.01;99657.38;5088891;27;45354;-74
2023/01/28 11:06:57;;;;;;;;;46.00;35.00;;;;;1.81;73.97;99659.97;5073434;28;45393;-74
2023/01/28 11:09:26;;;;;;;;;50.33;42.67;;;;;1.81;73.44;99655.66;5089635;27;45604;-74
2023/01/28 11:11:52;;;;;;;;;51.00;40.33;;;;;1.80;73.78;99656.50;5073970;28;45384;-74
2023/01/28 11:14:26;;;;;;;;;50.33;33.33;;;;;1.83;73.72;99661.72;5073389;27;45452;-75
2023/01/28 11:16:54;;;;;;;;;52.00;40.33;;;;;1.86;73.76;99658.22;5073661;28;45446;-75
2023/01/28 11:19:26;;;;;;;;;44.67;36.00;;;;;1.85;73.74;99656.50;5073878;28;45406;-75
2023/01/28 11:21:54;;;;;;;;;53.67;40.33;;;;;1.87;73.58;99660.84;5072716;28;45388;-75
2023/01/28 11:24:25;;;;;;;;;48.67;42.00;;;;;1.86;73.58;99664.31;5073378;28;45550;-75
2023/01/28 11:26:53;;;;;;;;;45.33;39.33;;;;;1.86;73.74;99659.09;5073601;28;45321;-75
2023/01/28 11:29:33;;;;;;;;;45.33;35.00;;;;;1.90;73.44;99649.59;5089180;27;45977;-75
2023/01/28 11:32:00;;;;;;;;;40.00;29.33;;;;;1.92;73.62;99653.94;5059922;27;46640;-74
2023/01/28 11:34:33;;;;;;;;;48.33;38.00;;;;;1.98;73.50;99645.31;5053092;28;45299;-75
2023/01/28 11:37:09;;;;;;;;;43.67;31.00;;;;;1.99;73.21;99650.50;5052877;28;45364;-74
2023/01/28 11:39:35;;;;;;;;;52.00;39.33;;;;;2.02;73.18;99653.09;5068556;28;45408;-75
2023/01/28 11:42:16;;;;;;;;;51.33;42.33;;;;;2.05;72.76;99660.91;5053052;28;45370;-75
2023/01/28 11:44:42;;;;;;;;;42.67;41.00;;;;;2.03;72.65;99647.03;5053598;28;45344;-75
2023/01/28 11:47:42;;;;;;;;;39.00;31.33;;;;;2.04;72.65;99640.97;5052178;28;45390;-75
2023/01/28 11:50:19;;;;;;;;;46.33;37.00;;;;;2.08;72.42;99649.66;5054390;28;45374;-75
2023/01/28 11:53:00;;;;;;;;;43.00;37.67;;;;;2.07;72.17;99643.56;5061977;27;45417;-75
2023/01/28 11:55:25;;;;;;;;;52.00;42.33;;;;;2.06;72.34;99643.56;5057412;28;45350;-76
2023/01/28 11:58:04;;;;;;;;;41.00;36.67;;;;;2.06;72.42;99644.44;5073623;27;45440;-76
2023/01/28 12:00:53;;;;;;;;;45.33;34.67;;;;;2.08;72.44;99639.25;5073150;28;45396;-75
2023/01/28 12:03:37;;;;;;;;;22.00;20.00;;;;;2.01;72.09;99643.56;5072897;28;45751;-75
2023/01/28 12:06:36;;;;;;;;;36.00;29.67;;;;;1.97;72.50;99643.56;5069648;28;45528;-75
2023/01/28 12:09:22;;;;;;;;;50.67;38.00;;;;;1.93;72.37;99653.06;5064621;28;45321;-76
2023/01/28 12:12:38;;;;;;;;;47.00;38.67;;;;;1.95;72.75;99650.47;5060947;28;45381;-76